sensor_id;sensor_type;location;lat;lon;timestamp;pressure;altitude;pressure_sealevel;temperature;humidity
8398;BME280;4236;54.504;9.588;2023-10-09T00:02:46;102071.47;;;10.22;100.00
8398;BME280;4236;54.504;9.588;2023-10-09T00:05:16;102069.31;;;10.17;100.00
8398;BME280;4236;54.504;9.588;2023-10-09T00:07:50;102063.13;;;10.17;100.00
8398;BME280;4236;54.504;9.588;2023-10-09T00:10:22;102072.31;;;10.14;100.00
8398;BME280;4236;54.504;9.588;2023-10-09T00:12:51;102067.41;;;10.10;100.00
8398;BME280;4236;54.504;9.588;2023-10-09T00:15:18;102063.41;;;10.06;100.00
8398;BME280;4236;54.504;9.588;2023-10-09T00:17:47;102053.75;;;10.05;100.00
8398;BME280;4236;54.504;9.588;2023-10-09T00:20:17;102040.22;;;9.98;100.00
8398;BME280;4236;54.504;9.588;2023-10-09T00:22:47;102042.38;;;9.94;100.00
8398;BME280;4236;54.504;9.588;2023-10-09T00:25:15;102037.84;;;9.87;100.00
8398;BME280;4236;54.504;9.588;2023-10-09T00:27:48;102021.88;;;9.87;100.00
8398;BME280;4236;54.504;9.588;2023-10-09T00:30:17;102019.69;;;9.82;100.00
8398;BME280;4236;54.504;9.588;2023-10-09T00:32:47;102003.50;;;9.76;100.00
8398;BME280;4236;54.504;9.588;2023-10-09T00:35:27;101984.50;;;9.71;100.00
8398;BME280;4236;54.504;9.588;2023-10-09T00:38:13;101986.81;;;9.66;100.00
8398;BME280;4236;54.504;9.588;2023-10-09T00:40:51;101988.13;;;9.62;100.00
8398;BME280;4236;54.504;9.588;2023-10-09T00:43:36;101980.13;;;9.62;100.00
8398;BME280;4236;54.504;9.588;2023-10-09T00:46:06;102002.13;;;9.64;100.00
8398;BME280;4236;54.504;9.588;2023-10-09T00:48:39;102016.09;;;9.66;100.00
8398;BME280;4236;54.504;9.588;2023-10-09T00:51:08;101999.81;;;9.69;100.00
8398;BME280;4236;54.504;9.588;2023-10-09T00:53:45;102003.13;;;9.71;100.00
8398;BME280;4236;54.504;9.588;2023-10-09T00:56:18;102001.31;;;9.71;100.00
8398;BME280;4236;54.504;9.588;2023-10-09T00:58:56;102013.66;;;9.72;100.00
8398;BME280;4236;54.504;9.588;2023-10-09T01:01:27;102019.81;;;9.73;100.00
8398;BME280;4236;54.504;9.588;2023-10-09T01:04:01;102020.13;;;9.70;100.00
8398;BME280;4236;54.504;9.588;2023-10-09T01:06:35;102011.44;;;9.68;100.00
8398;BME280;4236;54.504;9.588;2023-10-09T01:09:10;102002.66;;;9.67;100.00
8398;BME280;4236;54.504;9.588;2023-10-09T01:11:40;101986.66;;;9.67;100.00
8398;BME280;4236;54.504;9.588;2023-10-09T01:14:15;101988.63;;;9.65;100.00
8398;BME280;4236;54.504;9.588;2023-10-09T01:16:43;101974.66;;;9.63;100.00
8398;BME280;4236;54.504;9.588;2023-10-09T01:19:13;101966.66;;;9.63;100.00
8398;BME280;4236;54.504;9.588;2023-10-09T01:21:48;101975.81;;;9.61;100.00
8398;BME280;4236;54.504;9.588;2023-10-09T01:24:18;101984.97;;;9.58;100.00
8398;BME280;4236;54.504;9.588;2023-10-09T01:26:47;101977.97;;;9.57;100.00
8398;BME280;4236;54.504;9.588;2023-10-09T01:29:17;101970.16;;;9.56;100.00
8398;BME280;4236;54.504;9.588;2023-10-09T01:31:47;101964.28;;;9.52;100.00
8398;BME280;4236;54.504;9.588;2023-10-09T01:34:22;101955.44;;;9.43;100.00
8398;BME280;4236;54.504;9.588;2023-10-09T01:36:53;101946.25;;;9.38;100.00
8398;BME280;4236;54.504;9.588;2023-10-09T01:39:24;101956.22;;;9.36;100.00
8398;BME280;4236;54.504;9.588;2023-10-09T01:41:54;101940.22;;;9.28;100.00
8398;BME280;4236;54.504;9.588;2023-10-09T01:44:26;101933.06;;;9.28;100.00
8398;BME280;4236;54.504;9.588;2023-10-09T01:46:55;101943.66;;;9.20;100.00
8398;BME280;4236;54.504;9.588;2023-10-09T01:49:25;101938.47;;;9.11;100.00
8398;BME280;4236;54.504;9.588;2023-10-09T01:51:58;101936.47;;;9.13;100.00
8398;BME280;4236;54.504;9.588;2023-10-09T01:54:35;101938.63;;;9.09;100.00
8398;BME280;4236;54.504;9.588;2023-10-09T01:57:04;101937.78;;;9.09;100.00
8398;BME280;4236;54.504;9.588;2023-10-09T01:59:39;101923.81;;;9.07;100.00
8398;BME280;4236;54.504;9.588;2023-10-09T02:02:11;101907.97;;;9.05;100.00
8398;BME280;4236;54.504;9.588;2023-10-09T02:05:05;101891.69;;;9.08;100.00
8398;BME280;4236;54.504;9.588;2023-10-09T02:07:36;101882.69;;;9.01;100.00
8398;BME280;4236;54.504;9.588;2023-10-09T02:10:20;101875.38;;;9.03;100.00
8398;BME280;4236;54.504;9.588;2023-10-09T02:12:52;101872.53;;;8.97;100.00
8398;BME280;4236;54.504;9.588;2023-10-09T02:15:25;101862.50;;;8.90;100.00
8398;BME280;4236;54.504;9.588;2023-10-09T02:18:19;101857.06;;;8.92;100.00
8398;BME280;4236;54.504;9.588;2023-10-09T02:21:05;101853.38;;;8.93;100.00
8398;BME280;4236;54.504;9.588;2023-10-09T02:23:40;101843.22;;;8.88;100.00
8398;BME280;4236;54.504;9.588;2023-10-09T02:26:13;101836.59;;;8.93;100.00
8398;BME280;4236;54.504;9.588;2023-10-09T02:28:50;101830.97;;;8.96;100.00
8398;BME280;4236;54.504;9.588;2023-10-09T02:31:26;101828.31;;;8.96;100.00
8398;BME280;4236;54.504;9.588;2023-10-09T02:34:04;101818.66;;;8.95;100.00
8398;BME280;4236;54.504;9.588;2023-10-09T02:36:39;101806.84;;;8.97;100.00
8398;BME280;4236;54.504;9.588;2023-10-09T02:39:07;101806.50;;;8.92;100.00
8398;BME280;4236;54.504;9.588;2023-10-09T02:41:50;101806.50;;;8.92;100.00
8398;BME280;4236;54.504;9.588;2023-10-09T02:44:18;101808.00;;;8.95;100.00
8398;BME280;4236;54.504;9.588;2023-10-09T02:46:51;101803.66;;;8.94;100.00
8398;BME280;4236;54.504;9.588;2023-10-09T02:49:25;101793.88;;;8.94;100.00
8398;BME280;4236;54.504;9.588;2023-10-09T02:51:54;101794.72;;;8.95;100.00
8398;BME280;4236;54.504;9.588;2023-10-09T02:54:22;101799.03;;;8.96;100.00
8398;BME280;4236;54.504;9.588;2023-10-09T02:57:02;101795.53;;;8.95;100.00
8398;BME280;4236;54.504;9.588;2023-10-09T02:59:34;101804.81;;;8.91;100.00
8398;BME280;4236;54.504;9.588;2023-10-09T03:02:05;101796.19;;;8.89;100.00
8398;BME280;4236;54.504;9.588;2023-10-09T03:04:35;101788.22;;;8.89;100.00
8398;BME280;4236;54.504;9.588;2023-10-09T03:07:04;101784.84;;;8.87;100.00
8398;BME280;4236;54.504;9.588;2023-10-09T03:09:33;101774.91;;;8.89;100.00
8398;BME280;4236;54.504;9.588;2023-10-09T03:12:02;101768.25;;;8.93;100.00
8398;BME280;4236;54.504;9.588;2023-10-09T03:14:33;101767.94;;;8.96;100.00
8398;BME280;4236;54.504;9.588;2023-10-09T03:17:05;101754.31;;;8.99;100.00
8398;BME280;4236;54.504;9.588;2023-10-09T03:19:34;101760.97;;;9.03;100.00
8398;BME280;4236;54.504;9.588;2023-10-09T03:22:05;101764.94;;;8.99;100.00
8398;BME280;4236;54.504;9.588;2023-10-09T03:24:36;101766.47;;;9.02;100.00
8398;BME280;4236;54.504;9.588;2023-10-09T03:27:04;101751.31;;;9.02;100.00
8398;BME280;4236;54.504;9.588;2023-10-09T03:29:32;101758.16;;;9.05;100.00
8398;BME280;4236;54.504;9.588;2023-10-09T03:32:00;101758.84;;;9.07;100.00
8398;BME280;4236;54.504;9.588;2023-10-09T03:34:27;101743.72;;;9.07;100.00
8398;BME280;4236;54.504;9.588;2023-10-09T03:36:58;101751.69;;;9.15;100.00
8398;BME280;4236;54.504;9.588;2023-10-09T03:39:32;101743.25;;;9.20;100.00
8398;BME280;4236;54.504;9.588;2023-10-09T03:42:07;101743.06;;;9.21;100.00
8398;BME280;4236;54.504;9.588;2023-10-09T03:44:45;101747.22;;;9.24;100.00
8398;BME280;4236;54.504;9.588;2023-10-09T03:47:18;101743.91;;;9.22;100.00
8398;BME280;4236;54.504;9.588;2023-10-09T03:49:48;101745.72;;;9.21;100.00
8398;BME280;4236;54.504;9.588;2023-10-09T03:52:19;101748.22;;;9.23;100.00
8398;BME280;4236;54.504;9.588;2023-10-09T03:54:46;101740.72;;;9.26;100.00
8398;BME280;4236;54.504;9.588;2023-10-09T03:57:16;101727.09;;;9.29;100.00
8398;BME280;4236;54.504;9.588;2023-10-09T03:59:45;101732.94;;;9.33;100.00
8398;BME280;4236;54.504;9.588;2023-10-09T04:02:14;101732.09;;;9.32;100.00
8398;BME280;4236;54.504;9.588;2023-10-09T04:04:42;101728.97;;;9.37;100.00
8398;BME280;4236;54.504;9.588;2023-10-09T04:07:14;101730.97;;;9.43;100.00
8398;BME280;4236;54.504;9.588;2023-10-09T04:09:44;101717.47;;;9.44;100.00
8398;BME280;4236;54.504;9.588;2023-10-09T04:12:20;101710.97;;;9.47;100.00
8398;BME280;4236;54.504;9.588;2023-10-09T04:14:51;101708.16;;;9.49;100.00
8398;BME280;4236;54.504;9.588;2023-10-09T04:17:24;101711.47;;;9.51;100.00
8398;BME280;4236;54.504;9.588;2023-10-09T04:20:03;101707.50;;;9.55;100.00
8398;BME280;4236;54.504;9.588;2023-10-09T04:22:49;101696.84;;;9.55;100.00
8398;BME280;4236;54.504;9.588;2023-10-09T04:25:28;101688.53;;;9.58;100.00
8398;BME280;4236;54.504;9.588;2023-10-09T04:27:57;101689.69;;;9.63;100.00
8398;BME280;4236;54.504;9.588;2023-10-09T04:30:36;101686.50;;;9.68;100.00
8398;BME280;4236;54.504;9.588;2023-10-09T04:33:07;101681.69;;;9.71;100.00
8398;BME280;4236;54.504;9.588;2023-10-09T04:35:55;101686.34;;;9.77;100.00
8398;BME280;4236;54.504;9.588;2023-10-09T04:38:36;101670.34;;;9.77;100.00
8398;BME280;4236;54.504;9.588;2023-10-09T04:41:06;101654.03;;;9.80;100.00
8398;BME280;4236;54.504;9.588;2023-10-09T04:43:35;101653.69;;;9.83;100.00
8398;BME280;4236;54.504;9.588;2023-10-09T04:46:02;101655.19;;;9.86;100.00
8398;BME280;4236;54.504;9.588;2023-10-09T04:48:39;101657.50;;;9.89;100.00
8398;BME280;4236;54.504;9.588;2023-10-09T04:51:06;101656.84;;;9.87;100.00
8398;BME280;4236;54.504;9.588;2023-10-09T04:54:01;101654.69;;;9.90;100.00
8398;BME280;4236;54.504;9.588;2023-10-09T04:56:41;101651.03;;;9.91;100.00
8398;BME280;4236;54.504;9.588;2023-10-09T04:59:19;101636.53;;;9.94;100.00
8398;BME280;4236;54.504;9.588;2023-10-09T05:01:51;101639.34;;;9.92;100.00
8398;BME280;4236;54.504;9.588;2023-10-09T05:04:25;101631.03;;;9.95;100.00
8398;BME280;4236;54.504;9.588;2023-10-09T05:07:06;101619.72;;;9.93;100.00
8398;BME280;4236;54.504;9.588;2023-10-09T05:09:48;101615.22;;;9.94;100.00
8398;BME280;4236;54.504;9.588;2023-10-09T05:12:42;101609.72;;;9.95;100.00
8398;BME280;4236;54.504;9.588;2023-10-09T05:15:14;101602.75;;;9.94;100.00
8398;BME280;4236;54.504;9.588;2023-10-09T05:17:42;101598.75;;;9.90;100.00
8398;BME280;4236;54.504;9.588;2023-10-09T05:20:18;101603.06;;;9.91;100.00
8398;BME280;4236;54.504;9.588;2023-10-09T05:23:03;101618.03;;;9.92;100.00
8398;BME280;4236;54.504;9.588;2023-10-09T05:25:49;101618.53;;;9.96;100.00
8398;BME280;4236;54.504;9.588;2023-10-09T05:28:23;101618.19;;;9.99;100.00
8398;BME280;4236;54.504;9.588;2023-10-09T05:30:58;101620.50;;;10.02;100.00
8398;BME280;4236;54.504;9.588;2023-10-09T05:33:36;101625.66;;;10.03;100.00
8398;BME280;4236;54.504;9.588;2023-10-09T05:36:05;101617.31;;;10.07;100.00
8398;BME280;4236;54.504;9.588;2023-10-09T05:38:44;101617.16;;;10.08;100.00
8398;BME280;4236;54.504;9.588;2023-10-09T05:41:25;101619.28;;;10.13;100.00
8398;BME280;4236;54.504;9.588;2023-10-09T05:44:15;101621.16;;;10.12;100.00
8398;BME280;4236;54.504;9.588;2023-10-09T05:47:00;101621.16;;;10.12;100.00
8398;BME280;4236;54.504;9.588;2023-10-09T05:49:46;101625.34;;;10.15;100.00
8398;BME280;4236;54.504;9.588;2023-10-09T05:52:22;101624.16;;;10.17;100.00
8398;BME280;4236;54.504;9.588;2023-10-09T05:54:59;101613.16;;;10.20;100.00
8398;BME280;4236;54.504;9.588;2023-10-09T05:58:07;101629.44;;;10.25;100.00
8398;BME280;4236;54.504;9.588;2023-10-09T06:00:54;101622.13;;;10.27;100.00
8398;BME280;4236;54.504;9.588;2023-10-09T06:03:39;101615.63;;;10.30;100.00
8398;BME280;4236;54.504;9.588;2023-10-09T06:06:16;101614.25;;;10.34;100.00
8398;BME280;4236;54.504;9.588;2023-10-09T06:09:01;101615.56;;;10.38;100.00
8398;BME280;4236;54.504;9.588;2023-10-09T06:11:55;101615.03;;;10.42;100.00
8398;BME280;4236;54.504;9.588;2023-10-09T06:14:23;101610.38;;;10.44;100.00
8398;BME280;4236;54.504;9.588;2023-10-09T06:17:10;101612.84;;;10.46;100.00
8398;BME280;4236;54.504;9.588;2023-10-09T06:19:49;101602.88;;;10.48;100.00
8398;BME280;4236;54.504;9.588;2023-10-09T06:22:25;101606.69;;;10.45;100.00
8398;BME280;4236;54.504;9.588;2023-10-09T06:25:09;101596.03;;;10.45;100.00
8398;BME280;4236;54.504;9.588;2023-10-09T06:27:38;101595.56;;;10.42;100.00
8398;BME280;4236;54.504;9.588;2023-10-09T06:30:24;101590.03;;;10.43;100.00
8398;BME280;4236;54.504;9.588;2023-10-09T06:32:54;101589.06;;;10.44;100.00
8398;BME280;4236;54.504;9.588;2023-10-09T06:35:46;101587.22;;;10.45;100.00
8398;BME280;4236;54.504;9.588;2023-10-09T06:38:21;101584.00;;;10.49;100.00
8398;BME280;4236;54.504;9.588;2023-10-09T06:41:00;101582.53;;;10.47;100.00
8398;BME280;4236;54.504;9.588;2023-10-09T06:44:01;101581.19;;;10.51;100.00
8398;BME280;4236;54.504;9.588;2023-10-09T06:46:33;101575.00;;;10.50;100.00
8398;BME280;4236;54.504;9.588;2023-10-09T06:49:20;101582.00;;;10.51;100.00
8398;BME280;4236;54.504;9.588;2023-10-09T06:51:56;101588.34;;;10.50;100.00
8398;BME280;4236;54.504;9.588;2023-10-09T06:54:41;101585.50;;;10.52;100.00
8398;BME280;4236;54.504;9.588;2023-10-09T06:57:17;101584.31;;;10.54;100.00
8398;BME280;4236;54.504;9.588;2023-10-09T07:00:07;101586.28;;;10.61;100.00
8398;BME280;4236;54.504;9.588;2023-10-09T07:02:53;101580.41;;;10.65;100.00
8398;BME280;4236;54.504;9.588;2023-10-09T07:05:24;101573.59;;;10.63;100.00
8398;BME280;4236;54.504;9.588;2023-10-09T07:07:58;101572.22;;;10.67;100.00
8398;BME280;4236;54.504;9.588;2023-10-09T07:10:45;101566.25;;;10.65;100.00
8398;BME280;4236;54.504;9.588;2023-10-09T07:13:29;101565.19;;;10.74;100.00
8398;BME280;4236;54.504;9.588;2023-10-09T07:15:56;101569.69;;;10.73;100.00
8398;BME280;4236;54.504;9.588;2023-10-09T07:18:41;101573.13;;;10.82;100.00
8398;BME280;4236;54.504;9.588;2023-10-09T07:21:17;101574.59;;;10.84;100.00
8398;BME280;4236;54.504;9.588;2023-10-09T07:23:55;101578.78;;;10.87;100.00
8398;BME280;4236;54.504;9.588;2023-10-09T07:26:30;101585.63;;;10.81;100.00
8398;BME280;4236;54.504;9.588;2023-10-09T07:29:05;101577.19;;;10.78;100.00
8398;BME280;4236;54.504;9.588;2023-10-09T07:31:52;101585.00;;;10.79;100.00
8398;BME280;4236;54.504;9.588;2023-10-09T07:34:24;101587.00;;;10.77;100.00
8398;BME280;4236;54.504;9.588;2023-10-09T07:36:58;101590.16;;;10.81;100.00
8398;BME280;4236;54.504;9.588;2023-10-09T07:39:30;101596.31;;;10.81;100.00
8398;BME280;4236;54.504;9.588;2023-10-09T07:42:04;101597.13;;;10.82;100.00
8398;BME280;4236;54.504;9.588;2023-10-09T07:44:46;101592.28;;;10.85;100.00
8398;BME280;4236;54.504;9.588;2023-10-09T07:47:19;101593.28;;;10.84;100.00
8398;BME280;4236;54.504;9.588;2023-10-09T07:49:59;101596.06;;;10.91;100.00
8398;BME280;4236;54.504;9.588;2023-10-09T07:52:30;101598.09;;;10.89;100.00
8398;BME280;4236;54.504;9.588;2023-10-09T07:54:58;101594.66;;;10.80;100.00
8398;BME280;4236;54.504;9.588;2023-10-09T07:57:41;101602.78;;;10.87;100.00
8398;BME280;4236;54.504;9.588;2023-10-09T08:00:18;101593.88;;;10.94;100.00
8398;BME280;4236;54.504;9.588;2023-10-09T08:03:00;101590.69;;;10.99;100.00
8398;BME280;4236;54.504;9.588;2023-10-09T08:05:29;101588.13;;;11.05;100.00
8398;BME280;4236;54.504;9.588;2023-10-09T08:08:02;101588.88;;;11.14;100.00
8398;BME280;4236;54.504;9.588;2023-10-09T08:11:07;101593.50;;;11.20;100.00
8398;BME280;4236;54.504;9.588;2023-10-09T08:14:01;101596.53;;;11.17;100.00
8398;BME280;4236;54.504;9.588;2023-10-09T08:16:29;101604.25;;;11.12;100.00
8398;BME280;4236;54.504;9.588;2023-10-09T08:19:05;101600.66;;;11.05;100.00
8398;BME280;4236;54.504;9.588;2023-10-09T08:21:59;101604.97;;;11.06;100.00
8398;BME280;4236;54.504;9.588;2023-10-09T08:24:45;101605.59;;;11.08;100.00
8398;BME280;4236;54.504;9.588;2023-10-09T08:27:22;101606.81;;;11.05;100.00
8398;BME280;4236;54.504;9.588;2023-10-09T08:30:13;101604.13;;;11.05;100.00
8398;BME280;4236;54.504;9.588;2023-10-09T08:32:55;101607.75;;;11.13;100.00
8398;BME280;4236;54.504;9.588;2023-10-09T08:35:34;101607.13;;;11.10;100.00
8398;BME280;4236;54.504;9.588;2023-10-09T08:38:13;101607.53;;;11.22;100.00
8398;BME280;4236;54.504;9.588;2023-10-09T08:40:45;101605.13;;;11.27;100.00
8398;BME280;4236;54.504;9.588;2023-10-09T08:43:14;101600.91;;;11.33;100.00
8398;BME280;4236;54.504;9.588;2023-10-09T08:45:45;101603.06;;;11.37;100.00
8398;BME280;4236;54.504;9.588;2023-10-09T08:48:13;101598.81;;;11.43;100.00
8398;BME280;4236;54.504;9.588;2023-10-09T08:50:44;101605.38;;;11.40;100.00
8398;BME280;4236;54.504;9.588;2023-10-09T08:53:12;101600.28;;;11.45;100.00
8398;BME280;4236;54.504;9.588;2023-10-09T08:55:41;101595.59;;;11.47;100.00
8398;BME280;4236;54.504;9.588;2023-10-09T08:58:10;101598.38;;;11.54;100.00
8398;BME280;4236;54.504;9.588;2023-10-09T09:00:42;101601.25;;;11.52;100.00
8398;BME280;4236;54.504;9.588;2023-10-09T09:03:12;101601.50;;;11.57;100.00
8398;BME280;4236;54.504;9.588;2023-10-09T09:05:45;101598.13;;;11.63;100.00
8398;BME280;4236;54.504;9.588;2023-10-09T09:08:23;101602.19;;;11.74;100.00
8398;BME280;4236;54.504;9.588;2023-10-09T09:10:56;101608.75;;;11.72;100.00
8398;BME280;4236;54.504;9.588;2023-10-09T09:13:33;101604.81;;;11.82;100.00
8398;BME280;4236;54.504;9.588;2023-10-09T09:16:01;101605.53;;;11.91;100.00
8398;BME280;4236;54.504;9.588;2023-10-09T09:18:29;101609.47;;;11.95;100.00
8398;BME280;4236;54.504;9.588;2023-10-09T09:21:17;101613.47;;;11.84;100.00
8398;BME280;4236;54.504;9.588;2023-10-09T09:23:58;101598.72;;;11.74;100.00
8398;BME280;4236;54.504;9.588;2023-10-09T09:26:35;101610.53;;;11.79;100.00
8398;BME280;4236;54.504;9.588;2023-10-09T09:29:14;101614.38;;;11.77;100.00
8398;BME280;4236;54.504;9.588;2023-10-09T09:31:55;101609.41;;;11.88;100.00
8398;BME280;4236;54.504;9.588;2023-10-09T09:34:24;101599.91;;;12.00;100.00
8398;BME280;4236;54.504;9.588;2023-10-09T09:36:57;101598.44;;;12.12;100.00
8398;BME280;4236;54.504;9.588;2023-10-09T09:39:26;101597.03;;;12.16;100.00
8398;BME280;4236;54.504;9.588;2023-10-09T09:42:15;101592.25;;;12.12;100.00
8398;BME280;4236;54.504;9.588;2023-10-09T09:44:46;101581.38;;;12.13;100.00
8398;BME280;4236;54.504;9.588;2023-10-09T09:47:15;101574.06;;;12.22;100.00
8398;BME280;4236;54.504;9.588;2023-10-09T09:49:54;101569.16;;;12.40;100.00
8398;BME280;4236;54.504;9.588;2023-10-09T09:52:28;101574.13;;;12.43;100.00
8398;BME280;4236;54.504;9.588;2023-10-09T09:54:56;101571.78;;;12.55;100.00
8398;BME280;4236;54.504;9.588;2023-10-09T09:57:24;101569.19;;;12.61;100.00
8398;BME280;4236;54.504;9.588;2023-10-09T09:59:56;101551.97;;;12.70;100.00
8398;BME280;4236;54.504;9.588;2023-10-09T10:02:29;101553.00;;;12.91;100.00
8398;BME280;4236;54.504;9.588;2023-10-09T10:05:04;101551.44;;;13.03;100.00
8398;BME280;4236;54.504;9.588;2023-10-09T10:07:34;101549.94;;;13.15;100.00
8398;BME280;4236;54.504;9.588;2023-10-09T10:10:36;101546.50;;;13.21;100.00
8398;BME280;4236;54.504;9.588;2023-10-09T10:13:14;101549.56;;;13.18;100.00
8398;BME280;4236;54.504;9.588;2023-10-09T10:16:05;101559.94;;;13.06;100.00
8398;BME280;4236;54.504;9.588;2023-10-09T10:18:53;101565.44;;;12.98;100.00
8398;BME280;4236;54.504;9.588;2023-10-09T10:21:27;101565.81;;;12.74;100.00
8398;BME280;4236;54.504;9.588;2023-10-09T10:27:21;101589.75;;;12.61;100.00
8398;BME280;4236;54.504;9.588;2023-10-09T10:30:28;101597.28;;;12.51;100.00
8398;BME280;4236;54.504;9.588;2023-10-09T10:33:02;101597.91;;;12.53;100.00
8398;BME280;4236;54.504;9.588;2023-10-09T10:35:43;101598.09;;;12.51;100.00
8398;BME280;4236;54.504;9.588;2023-10-09T10:38:27;101602.16;;;12.47;100.00
8398;BME280;4236;54.504;9.588;2023-10-09T10:41:13;101607.50;;;12.47;100.00
8398;BME280;4236;54.504;9.588;2023-10-09T10:43:43;101609.56;;;12.45;100.00
8398;BME280;4236;54.504;9.588;2023-10-09T10:46:26;101605.84;;;12.46;100.00
8398;BME280;4236;54.504;9.588;2023-10-09T10:49:10;101610.19;;;12.47;100.00
8398;BME280;4236;54.504;9.588;2023-10-09T10:51:48;101601.69;;;12.44;100.00
8398;BME280;4236;54.504;9.588;2023-10-09T10:54:21;101594.88;;;12.41;100.00
8398;BME280;4236;54.504;9.588;2023-10-09T10:57:20;101585.66;;;12.44;100.00
8398;BME280;4236;54.504;9.588;2023-10-09T10:59:57;101594.31;;;12.46;100.00
8398;BME280;4236;54.504;9.588;2023-10-09T11:02:42;101591.09;;;12.50;100.00
8398;BME280;4236;54.504;9.588;2023-10-09T11:05:11;101598.03;;;12.45;100.00
8398;BME280;4236;54.504;9.588;2023-10-09T11:07:51;101595.50;;;12.43;100.00
8398;BME280;4236;54.504;9.588;2023-10-09T11:10:23;101594.50;;;12.44;100.00
8398;BME280;4236;54.504;9.588;2023-10-09T11:12:58;101589.81;;;12.32;100.00
8398;BME280;4236;54.504;9.588;2023-10-09T11:15:44;101597.56;;;12.41;100.00
8398;BME280;4236;54.504;9.588;2023-10-09T11:18:14;101600.13;;;12.49;100.00
8398;BME280;4236;54.504;9.588;2023-10-09T11:20:50;101601.53;;;12.45;100.00
8398;BME280;4236;54.504;9.588;2023-10-09T11:23:44;101598.84;;;12.45;100.00
8398;BME280;4236;54.504;9.588;2023-10-09T11:26:25;101604.00;;;12.47;100.00
8398;BME280;4236;54.504;9.588;2023-10-09T11:29:08;101605.09;;;12.52;100.00
8398;BME280;4236;54.504;9.588;2023-10-09T11:32:00;101605.56;;;12.56;100.00
8398;BME280;4236;54.504;9.588;2023-10-09T11:34:28;101606.63;;;12.61;100.00
8398;BME280;4236;54.504;9.588;2023-10-09T11:37:01;101601.50;;;12.60;100.00
8398;BME280;4236;54.504;9.588;2023-10-09T11:39:30;101603.59;;;12.64;100.00
8398;BME280;4236;54.504;9.588;2023-10-09T11:42:19;101595.63;;;12.71;100.00
8398;BME280;4236;54.504;9.588;2023-10-09T11:45:02;101603.53;;;12.79;100.00
8398;BME280;4236;54.504;9.588;2023-10-09T11:47:46;101604.44;;;12.86;100.00
8398;BME280;4236;54.504;9.588;2023-10-09T11:50:38;101615.59;;;12.90;100.00
8398;BME280;4236;54.504;9.588;2023-10-09T11:53:11;101600.94;;;12.86;100.00
8398;BME280;4236;54.504;9.588;2023-10-09T11:56:00;101603.22;;;12.89;100.00
8398;BME280;4236;54.504;9.588;2023-10-09T11:58:28;101598.88;;;12.88;100.00
8398;BME280;4236;54.504;9.588;2023-10-09T12:00:57;101594.38;;;12.88;100.00
8398;BME280;4236;54.504;9.588;2023-10-09T12:03:32;101588.88;;;12.96;100.00
8398;BME280;4236;54.504;9.588;2023-10-09T12:06:01;101584.88;;;13.07;100.00
8398;BME280;4236;54.504;9.588;2023-10-09T12:08:34;101574.88;;;13.15;100.00
8398;BME280;4236;54.504;9.588;2023-10-09T12:11:04;101574.56;;;13.25;100.00
8398;BME280;4236;54.504;9.588;2023-10-09T12:13:35;101565.34;;;13.34;100.00
8398;BME280;4236;54.504;9.588;2023-10-09T12:16:05;101577.91;;;13.61;100.00
8398;BME280;4236;54.504;9.588;2023-10-09T12:18:35;101574.97;;;13.56;100.00
8398;BME280;4236;54.504;9.588;2023-10-09T12:21:05;101576.47;;;13.65;100.00
8398;BME280;4236;54.504;9.588;2023-10-09T12:23:34;101585.31;;;13.59;100.00
8398;BME280;4236;54.504;9.588;2023-10-09T12:26:03;101582.16;;;13.49;100.00
8398;BME280;4236;54.504;9.588;2023-10-09T12:28:31;101578.66;;;13.49;100.00
8398;BME280;4236;54.504;9.588;2023-10-09T12:31:01;101583.63;;;13.52;100.00
8398;BME280;4236;54.504;9.588;2023-10-09T12:33:29;101578.44;;;13.50;100.00
8398;BME280;4236;54.504;9.588;2023-10-09T12:35:57;101571.63;;;13.48;100.00
8398;BME280;4236;54.504;9.588;2023-10-09T12:38:27;101564.88;;;13.52;100.00
8398;BME280;4236;54.504;9.588;2023-10-09T12:41:06;101565.75;;;13.59;100.00
8398;BME280;4236;54.504;9.588;2023-10-09T12:43:46;101570.44;;;13.57;100.00
8398;BME280;4236;54.504;9.588;2023-10-09T12:46:13;101570.09;;;13.66;100.00
8398;BME280;4236;54.504;9.588;2023-10-09T12:48:44;101562.91;;;13.67;100.00
8398;BME280;4236;54.504;9.588;2023-10-09T12:51:13;101568.94;;;13.75;100.00
8398;BME280;4236;54.504;9.588;2023-10-09T12:53:43;101581.72;;;13.80;100.00
8398;BME280;4236;54.504;9.588;2023-10-09T12:56:13;101572.09;;;13.85;100.00
8398;BME280;4236;54.504;9.588;2023-10-09T12:58:42;101568.22;;;13.95;100.00
8398;BME280;4236;54.504;9.588;2023-10-09T13:01:19;101565.34;;;13.96;100.00
8398;BME280;4236;54.504;9.588;2023-10-09T13:03:47;101568.22;;;13.95;100.00
8398;BME280;4236;54.504;9.588;2023-10-09T13:06:16;101557.06;;;13.91;100.00
8398;BME280;4236;54.504;9.588;2023-10-09T13:08:51;101559.97;;;13.96;100.00
8398;BME280;4236;54.504;9.588;2023-10-09T13:11:20;101546.78;;;13.95;100.00
8398;BME280;4236;54.504;9.588;2023-10-09T13:13:48;101548.63;;;13.94;100.00
8398;BME280;4236;54.504;9.588;2023-10-09T13:16:19;101548.44;;;14.02;100.00
8398;BME280;4236;54.504;9.588;2023-10-09T13:18:50;101543.53;;;14.06;100.00
8398;BME280;4236;54.504;9.588;2023-10-09T13:21:18;101548.63;;;13.94;100.00
8398;BME280;4236;54.504;9.588;2023-10-09T13:23:47;101545.94;;;13.94;100.00
8398;BME280;4236;54.504;9.588;2023-10-09T13:26:16;101551.50;;;13.93;100.00
8398;BME280;4236;54.504;9.588;2023-10-09T13:29:03;101566.69;;;13.79;100.00
8398;BME280;4236;54.504;9.588;2023-10-09T13:31:35;101572.22;;;13.77;100.00
8398;BME280;4236;54.504;9.588;2023-10-09T13:34:04;101575.97;;;13.76;100.00
8398;BME280;4236;54.504;9.588;2023-10-09T13:36:36;101571.50;;;13.62;100.00
8398;BME280;4236;54.504;9.588;2023-10-09T13:39:06;101577.88;;;13.55;100.00
8398;BME280;4236;54.504;9.588;2023-10-09T13:41:50;101578.31;;;13.58;100.00
8398;BME280;4236;54.504;9.588;2023-10-09T13:44:26;101572.94;;;13.58;100.00
8398;BME280;4236;54.504;9.588;2023-10-09T13:46:54;101583.41;;;13.53;100.00
8398;BME280;4236;54.504;9.588;2023-10-09T13:49:23;101576.16;;;13.47;100.00
8398;BME280;4236;54.504;9.588;2023-10-09T13:51:57;101574.69;;;13.45;100.00
8398;BME280;4236;54.504;9.588;2023-10-09T13:54:25;101580.22;;;13.37;100.00